Time;durP1;ratioP1;P1;durP2;ratioP2;P2;SDS_P1;SDS_P2;PMS_P1;PMS_P2;Temp;Humidity;BMP_temperature;BMP_pressure;BME280_temperature;BME280_humidity;BME280_pressure;Samples;Min_cycle;Max_cycle;Signal;HPM_P1;HPM_P2
2021/11/21 00:00:24;;;;;;;13.57;6.78;;;;;;;;;;4990816;28;20162;-59
2021/11/21 00:02:50;;;;;;;12.45;6.82;;;;;;;;;;4988821;28;20451;-60
2021/11/21 00:05:15;;;;;;;15.52;6.88;;;;;;;;;;4963111;28;20563;-59
2021/11/21 00:07:41;;;;;;;12.82;5.57;;;;;;;;;;4951206;28;20376;-60
2021/11/21 00:10:07;;;;;;;18.13;7.28;;;;;;;;;;4951624;28;20465;-63
2021/11/21 00:12:33;;;;;;;14.30;6.70;;;;;;;;;;4951500;28;20535;-60
2021/11/21 00:14:58;;;;;;;15.73;6.47;;;;;;;;;;4952977;28;20384;-59
2021/11/21 00:17:23;;;;;;;13.05;6.55;;;;;;;;;;4951229;28;20433;-59
2021/11/21 00:19:49;;;;;;;11.93;6.75;;;;;;;;;;4951243;28;20392;-60
2021/11/21 00:22:15;;;;;;;13.40;7.18;;;;;;;;;;4951067;28;20429;-59
2021/11/21 00:24:42;;;;;;;13.10;6.90;;;;;;;;;;4950813;28;20441;-59
2021/11/21 00:27:07;;;;;;;18.00;7.53;;;;;;;;;;4951256;28;20492;-59
2021/11/21 00:29:33;;;;;;;13.38;6.57;;;;;;;;;;4951644;28;20698;-59
2021/11/21 00:31:59;;;;;;;13.88;7.47;;;;;;;;;;4950799;28;20433;-59
2021/11/21 00:34:25;;;;;;;12.70;6.88;;;;;;;;;;4950661;28;20587;-60
2021/11/21 00:36:50;;;;;;;14.13;7.10;;;;;;;;;;4950937;28;20445;-59
2021/11/21 00:39:16;;;;;;;17.60;7.60;;;;;;;;;;4950763;28;20425;-59
2021/11/21 00:41:41;;;;;;;13.88;6.75;;;;;;;;;;4950664;28;20030;-59
2021/11/21 00:44:06;;;;;;;15.05;7.00;;;;;;;;;;4950350;28;20053;-60
2021/11/21 00:46:32;;;;;;;13.77;7.00;;;;;;;;;;4950451;28;20406;-59
2021/11/21 00:48:57;;;;;;;15.63;6.35;;;;;;;;;;4950862;28;20084;-59
2021/11/21 00:51:23;;;;;;;13.25;5.95;;;;;;;;;;4951343;28;20500;-60
2021/11/21 00:53:53;;;;;;;12.40;5.47;;;;;;;;;;4950571;28;20353;-59
2021/11/21 00:56:19;;;;;;;13.50;6.47;;;;;;;;;;4950731;28;20357;-59
2021/11/21 00:58:44;;;;;;;12.50;6.60;;;;;;;;;;4950131;28;20484;-59
2021/11/21 01:01:10;;;;;;;11.65;5.38;;;;;;;;;;4950891;28;20461;-61
2021/11/21 01:03:35;;;;;;;11.85;5.90;;;;;;;;;;4950168;28;20330;-59
2021/11/21 01:06:01;;;;;;;12.15;6.10;;;;;;;;;;4950295;28;20440;-59
2021/11/21 01:08:27;;;;;;;11.30;5.15;;;;;;;;;;4950533;28;20398;-60
2021/11/21 01:10:56;;;;;;;11.35;5.82;;;;;;;;;;4950737;28;20320;-59
2021/11/21 01:13:22;;;;;;;12.52;5.75;;;;;;;;;;4950620;28;20344;-59
2021/11/21 01:15:47;;;;;;;12.95;5.60;;;;;;;;;;4950610;28;20034;-59
2021/11/21 01:18:13;;;;;;;13.60;5.55;;;;;;;;;;4950266;28;20488;-59
2021/11/21 01:20:40;;;;;;;12.18;5.75;;;;;;;;;;4950090;28;20030;-59
2021/11/21 01:23:07;;;;;;;12.38;6.25;;;;;;;;;;4950179;28;20344;-60
2021/11/21 01:25:32;;;;;;;11.05;5.65;;;;;;;;;;4949651;28;20334;-59
2021/11/21 01:27:58;;;;;;;10.55;5.75;;;;;;;;;;4950186;28;20376;-60
2021/11/21 01:30:26;;;;;;;13.30;6.22;;;;;;;;;;4949855;28;20445;-59
2021/11/21 01:32:52;;;;;;;12.65;5.47;;;;;;;;;;4949932;28;20056;-59
2021/11/21 01:35:18;;;;;;;10.73;5.78;;;;;;;;;;4950163;28;20449;-61
2021/11/21 01:37:43;;;;;;;10.68;5.03;;;;;;;;;;4951890;28;20413;-59
2021/11/21 01:40:12;;;;;;;12.05;5.35;;;;;;;;;;4950004;28;20416;-59
2021/11/21 01:42:38;;;;;;;10.48;5.47;;;;;;;;;;4949363;28;20538;-59
2021/11/21 01:45:05;;;;;;;10.95;5.38;;;;;;;;;;4950624;28;20480;-59
2021/11/21 01:47:31;;;;;;;9.15;4.88;;;;;;;;;;4950107;28;20057;-59
2021/11/21 01:49:56;;;;;;;10.93;5.38;;;;;;;;;;4949705;28;20333;-59
2021/11/21 01:52:22;;;;;;;9.75;5.38;;;;;;;;;;4949948;28;20306;-59
2021/11/21 01:54:48;;;;;;;10.35;5.22;;;;;;;;;;4950591;28;20106;-59
2021/11/21 01:57:14;;;;;;;9.57;5.63;;;;;;;;;;4949818;28;20132;-59
2021/11/21 01:59:39;;;;;;;10.38;5.63;;;;;;;;;;4951511;28;20412;-59
2021/11/21 02:02:05;;;;;;;9.93;5.30;;;;;;;;;;4949964;28;20076;-59
2021/11/21 02:04:30;;;;;;;11.15;5.45;;;;;;;;;;4949543;28;20173;-59
2021/11/21 02:06:55;;;;;;;11.65;5.32;;;;;;;;;;4949773;28;20435;-59
2021/11/21 02:09:21;;;;;;;13.52;5.78;;;;;;;;;;4950999;28;20022;-59
2021/11/21 02:11:46;;;;;;;9.45;5.18;;;;;;;;;;4949631;28;20053;-60
2021/11/21 02:14:11;;;;;;;10.32;5.53;;;;;;;;;;4949585;28;20657;-59
2021/11/21 02:16:38;;;;;;;9.52;5.45;;;;;;;;;;4951047;28;20030;-59
2021/11/21 02:19:03;;;;;;;10.20;5.25;;;;;;;;;;4949187;28;20345;-59
2021/11/21 02:21:29;;;;;;;8.88;4.85;;;;;;;;;;4949558;28;20343;-58
2021/11/21 02:23:54;;;;;;;12.05;5.80;;;;;;;;;;4949431;28;20377;-59
2021/11/21 02:26:19;;;;;;;12.80;5.90;;;;;;;;;;4951484;28;20345;-60
2021/11/21 02:28:47;;;;;;;9.20;5.60;;;;;;;;;;4953994;28;20488;-60
2021/11/21 02:31:13;;;;;;;11.10;5.47;;;;;;;;;;4954907;28;20364;-59
2021/11/21 02:33:39;;;;;;;10.45;5.35;;;;;;;;;;4953537;28;20456;-60
2021/11/21 02:36:05;;;;;;;11.50;6.13;;;;;;;;;;4953117;28;20469;-59
2021/11/21 02:38:31;;;;;;;10.93;5.10;;;;;;;;;;4955341;28;20316;-59
2021/11/21 02:40:58;;;;;;;9.60;5.50;;;;;;;;;;4952967;28;20349;-59
2021/11/21 02:43:23;;;;;;;9.05;5.65;;;;;;;;;;4952537;28;20449;-59
2021/11/21 02:45:50;;;;;;;10.48;5.20;;;;;;;;;;4952679;28;20409;-59
2021/11/21 02:48:17;;;;;;;9.25;4.85;;;;;;;;;;4952702;28;20445;-59
2021/11/21 02:50:43;;;;;;;10.13;5.32;;;;;;;;;;4953727;28;20045;-59
2021/11/21 02:53:09;;;;;;;10.70;5.28;;;;;;;;;;4952998;28;20104;-61
2021/11/21 02:55:34;;;;;;;9.95;4.85;;;;;;;;;;4952454;28;20061;-59
2021/11/21 02:58:01;;;;;;;10.23;5.25;;;;;;;;;;4953072;28;20413;-59
2021/11/21 03:00:27;;;;;;;10.57;5.85;;;;;;;;;;4952608;28;20337;-60
2021/11/21 03:02:52;;;;;;;9.57;5.60;;;;;;;;;;4953213;28;20314;-59
2021/11/21 03:05:20;;;;;;;10.02;5.50;;;;;;;;;;4952445;28;20401;-59
2021/11/21 03:07:47;;;;;;;10.88;5.20;;;;;;;;;;4952641;28;20503;-59
2021/11/21 03:10:18;;;;;;;10.90;6.28;;;;;;;;;;4953432;28;20452;-59
2021/11/21 03:12:43;;;;;;;11.00;5.10;;;;;;;;;;4952802;28;20448;-59
2021/11/21 03:15:09;;;;;;;12.75;5.20;;;;;;;;;;4954090;28;20345;-59
2021/11/21 03:17:35;;;;;;;9.38;5.45;;;;;;;;;;4952359;28;20392;-59
2021/11/21 03:20:00;;;;;;;9.20;5.50;;;;;;;;;;4952410;28;20038;-62
2021/11/21 03:22:26;;;;;;;7.72;4.43;;;;;;;;;;4952275;28;20034;-59
2021/11/21 03:24:51;;;;;;;10.70;5.38;;;;;;;;;;4952143;28;20022;-59
2021/11/21 03:27:16;;;;;;;10.63;5.30;;;;;;;;;;4952502;28;20348;-58
2021/11/21 03:29:42;;;;;;;7.55;4.22;;;;;;;;;;4953150;28;20030;-59
2021/11/21 03:32:08;;;;;;;8.07;5.07;;;;;;;;;;4950544;28;20372;-60
2021/11/21 03:34:37;;;;;;;9.43;5.30;;;;;;;;;;4951994;28;20377;-58
2021/11/21 03:37:03;;;;;;;8.32;5.47;;;;;;;;;;4953473;28;20440;-59
2021/11/21 03:39:28;;;;;;;8.68;5.03;;;;;;;;;;4952062;28;20172;-59
2021/11/21 03:41:54;;;;;;;7.82;4.35;;;;;;;;;;4952047;28;20421;-59
2021/11/21 03:44:19;;;;;;;7.13;3.95;;;;;;;;;;4951537;28;20392;-59
2021/11/21 03:46:44;;;;;;;11.07;5.22;;;;;;;;;;4951766;28;20026;-60
2021/11/21 03:49:10;;;;;;;7.05;4.57;;;;;;;;;;4951657;28;20096;-59
2021/11/21 03:51:35;;;;;;;8.15;4.70;;;;;;;;;;4951419;28;20321;-59
2021/11/21 03:54:01;;;;;;;7.90;5.05;;;;;;;;;;4951967;28;20439;-60
2021/11/21 03:56:26;;;;;;;7.63;4.85;;;;;;;;;;4951908;28;20325;-65
2021/11/21 03:58:52;;;;;;;7.50;4.63;;;;;;;;;;4951549;28;20022;-59
2021/11/21 04:01:17;;;;;;;10.95;5.15;;;;;;;;;;4952170;28;20175;-61
2021/11/21 04:03:43;;;;;;;8.38;4.60;;;;;;;;;;4951426;28;20396;-59
2021/11/21 04:06:11;;;;;;;6.68;4.25;;;;;;;;;;4951941;28;20499;-59
2021/11/21 04:08:37;;;;;;;6.85;3.92;;;;;;;;;;4951479;28;20441;-59
2021/11/21 04:11:03;;;;;;;10.57;5.32;;;;;;;;;;4951322;28;20499;-59
2021/11/21 04:13:28;;;;;;;7.85;4.30;;;;;;;;;;4951437;28;20479;-59
2021/11/21 04:15:54;;;;;;;8.00;4.80;;;;;;;;;;4951793;28;20523;-59
2021/11/21 04:18:19;;;;;;;6.70;4.60;;;;;;;;;;4951931;28;20425;-59
2021/11/21 04:20:45;;;;;;;7.72;4.32;;;;;;;;;;4951310;28;20488;-59
2021/11/21 04:23:11;;;;;;;10.80;4.38;;;;;;;;;;4951775;28;20345;-59
2021/11/21 04:25:36;;;;;;;7.15;4.30;;;;;;;;;;4951267;28;20475;-59
2021/11/21 04:28:01;;;;;;;6.43;4.28;;;;;;;;;;4950882;28;20021;-59
2021/11/21 04:30:27;;;;;;;8.93;4.70;;;;;;;;;;4951214;28;20375;-60
2021/11/21 04:32:52;;;;;;;7.40;4.25;;;;;;;;;;4952505;28;20384;-60
2021/11/21 04:35:19;;;;;;;8.23;4.57;;;;;;;;;;4951586;28;20456;-60
2021/11/21 04:37:46;;;;;;;7.88;4.45;;;;;;;;;;4950797;28;20342;-59
2021/11/21 04:40:12;;;;;;;7.20;4.32;;;;;;;;;;4950851;28;20465;-59
2021/11/21 04:42:38;;;;;;;8.15;4.25;;;;;;;;;;4950171;28;20599;-61
2021/11/21 04:45:05;;;;;;;6.85;3.85;;;;;;;;;;4950553;28;20477;-59
2021/11/21 04:47:30;;;;;;;6.40;3.72;;;;;;;;;;4951788;28;20420;-60
2021/11/21 04:49:56;;;;;;;5.78;3.63;;;;;;;;;;4951171;28;20342;-59
2021/11/21 04:52:21;;;;;;;9.45;4.75;;;;;;;;;;4950955;28;20332;-59
2021/11/21 04:54:46;;;;;;;7.25;4.22;;;;;;;;;;4952013;28;20061;-59
2021/11/21 04:57:14;;;;;;;6.88;4.18;;;;;;;;;;4951137;28;20437;-59
2021/11/21 04:59:40;;;;;;;6.93;3.95;;;;;;;;;;4950112;28;20088;-59
2021/11/21 05:02:05;;;;;;;6.45;4.00;;;;;;;;;;4950421;28;20120;-61
2021/11/21 05:04:30;;;;;;;4.97;3.72;;;;;;;;;;4950032;28;20330;-59
2021/11/21 05:06:56;;;;;;;5.82;4.00;;;;;;;;;;4950298;28;20571;-59
2021/11/21 05:09:21;;;;;;;6.63;4.07;;;;;;;;;;4950763;28;20376;-59
2021/11/21 05:11:47;;;;;;;5.65;3.38;;;;;;;;;;4950318;28;20494;-59
2021/11/21 05:14:16;;;;;;;6.78;4.05;;;;;;;;;;4950890;28;20133;-60
2021/11/21 05:16:41;;;;;;;7.72;4.07;;;;;;;;;;4950502;28;20406;-59
2021/11/21 05:19:07;;;;;;;7.72;4.25;;;;;;;;;;4950431;28;20136;-59
2021/11/21 05:21:32;;;;;;;8.38;3.90;;;;;;;;;;4950333;28;20333;-59
2021/11/21 05:23:58;;;;;;;8.07;3.67;;;;;;;;;;4950259;28;20120;-59
2021/11/21 05:26:24;;;;;;;5.15;3.40;;;;;;;;;;4949352;28;20100;-59
2021/11/21 05:28:50;;;;;;;5.80;4.10;;;;;;;;;;4951517;28;20436;-59
2021/11/21 05:31:15;;;;;;;6.30;3.90;;;;;;;;;;4949805;28;20525;-60
2021/11/21 05:33:41;;;;;;;6.60;3.53;;;;;;;;;;4950108;28;20439;-59
2021/11/21 05:36:06;;;;;;;7.70;3.97;;;;;;;;;;4949948;28;20503;-61
2021/11/21 05:38:31;;;;;;;7.15;4.22;;;;;;;;;;4949980;28;20424;-60
2021/11/21 05:40:57;;;;;;;5.90;3.95;;;;;;;;;;4950052;28;20414;-60
2021/11/21 05:43:22;;;;;;;6.65;3.80;;;;;;;;;;4949270;28;20065;-60
2021/11/21 05:45:47;;;;;;;5.55;3.80;;;;;;;;;;4950077;28;20346;-61
2021/11/21 05:48:13;;;;;;;7.40;3.78;;;;;;;;;;4951790;28;20026;-59
2021/11/21 05:50:38;;;;;;;6.50;3.50;;;;;;;;;;4949704;28;20376;-60
2021/11/21 05:53:04;;;;;;;6.50;4.13;;;;;;;;;;4949485;28;20460;-59
2021/11/21 05:55:29;;;;;;;6.63;3.97;;;;;;;;;;4950300;28;20073;-62
2021/11/21 05:57:55;;;;;;;6.07;3.60;;;;;;;;;;4950574;28;20448;-60
2021/11/21 06:00:23;;;;;;;5.45;3.40;;;;;;;;;;4951769;28;20416;-60
2021/11/21 06:02:48;;;;;;;5.55;4.03;;;;;;;;;;4953967;28;20500;-59
2021/11/21 06:05:14;;;;;;;6.28;4.13;;;;;;;;;;4954204;28;20508;-59
2021/11/21 06:07:39;;;;;;;8.23;4.47;;;;;;;;;;4953939;28;20484;-59
2021/11/21 06:10:06;;;;;;;5.07;3.80;;;;;;;;;;4953992;28;20033;-58
2021/11/21 06:12:32;;;;;;;5.63;3.85;;;;;;;;;;4953575;28;20456;-59
2021/11/21 06:14:57;;;;;;;8.07;4.50;;;;;;;;;;4954366;28;20409;-59
2021/11/21 06:17:23;;;;;;;5.80;3.55;;;;;;;;;;4953441;28;20448;-59
2021/11/21 06:19:48;;;;;;;6.15;3.92;;;;;;;;;;4954141;28;20065;-59
2021/11/21 06:22:14;;;;;;;8.82;4.45;;;;;;;;;;4953567;28;20429;-59
2021/11/21 06:24:40;;;;;;;7.53;4.15;;;;;;;;;;4953316;28;20033;-59
2021/11/21 06:27:05;;;;;;;5.82;3.70;;;;;;;;;;4953577;28;20044;-59
2021/11/21 06:29:31;;;;;;;6.93;4.28;;;;;;;;;;4953289;28;20409;-60
2021/11/21 06:31:57;;;;;;;8.85;4.38;;;;;;;;;;4953270;28;20454;-59
2021/11/21 06:34:22;;;;;;;5.63;3.60;;;;;;;;;;4954626;28;20322;-59
2021/11/21 06:36:47;;;;;;;7.35;3.78;;;;;;;;;;4953083;28;20353;-60
2021/11/21 06:39:13;;;;;;;7.57;4.60;;;;;;;;;;4952646;28;20453;-59
2021/11/21 06:41:38;;;;;;;5.72;3.85;;;;;;;;;;4954080;28;20433;-59
2021/11/21 06:44:05;;;;;;;6.03;3.72;;;;;;;;;;4952579;28;20120;-61
2021/11/21 06:46:31;;;;;;;5.95;4.07;;;;;;;;;;4953644;28;20437;-59
2021/11/21 06:48:56;;;;;;;7.03;4.22;;;;;;;;;;4953034;28;20380;-60
2021/11/21 06:51:21;;;;;;;5.70;4.05;;;;;;;;;;4952801;28;20120;-59
2021/11/21 06:53:48;;;;;;;5.28;3.47;;;;;;;;;;4953619;28;20042;-60
2021/11/21 06:56:15;;;;;;;6.63;4.22;;;;;;;;;;4952683;28;20314;-59
2021/11/21 06:58:40;;;;;;;5.80;4.18;;;;;;;;;;4952262;28;20422;-59
2021/11/21 07:01:05;;;;;;;8.48;4.50;;;;;;;;;;4952724;28;20506;-59
2021/11/21 07:03:31;;;;;;;5.25;3.72;;;;;;;;;;4952847;28;20030;-59
2021/11/21 07:05:56;;;;;;;6.63;4.32;;;;;;;;;;4952897;28;20030;-59
2021/11/21 07:08:23;;;;;;;5.88;3.63;;;;;;;;;;4953610;28;20143;-59
2021/11/21 07:10:49;;;;;;;6.53;3.90;;;;;;;;;;4952006;28;20456;-59
2021/11/21 07:13:15;;;;;;;6.57;4.32;;;;;;;;;;4953638;28;20363;-59
2021/11/21 07:15:40;;;;;;;5.47;3.63;;;;;;;;;;4952673;28;20341;-59
2021/11/21 07:18:05;;;;;;;7.63;4.00;;;;;;;;;;4952696;28;20055;-59
2021/11/21 07:20:31;;;;;;;6.50;4.18;;;;;;;;;;4952490;28;20459;-59
2021/11/21 07:22:56;;;;;;;6.82;3.88;;;;;;;;;;4952387;28;20030;-60
2021/11/21 07:25:23;;;;;;;8.23;4.10;;;;;;;;;;4953145;28;20429;-59
2021/11/21 07:27:50;;;;;;;7.72;4.82;;;;;;;;;;4952190;28;20426;-59
2021/11/21 07:30:17;;;;;;;6.95;4.07;;;;;;;;;;4951815;28;20414;-60
2021/11/21 07:32:44;;;;;;;7.43;4.32;;;;;;;;;;4951951;28;20415;-61
2021/11/21 07:35:10;;;;;;;9.82;5.25;;;;;;;;;;4951920;28;20456;-61
2021/11/21 07:37:36;;;;;;;8.70;5.13;;;;;;;;;;4952312;28;20453;-61
2021/11/21 07:40:02;;;;;;;8.65;4.60;;;;;;;;;;4952335;28;20530;-60
2021/11/21 07:42:28;;;;;;;7.13;4.25;;;;;;;;;;4952731;28;20052;-60
2021/11/21 07:44:53;;;;;;;9.32;5.10;;;;;;;;;;4951441;28;20465;-59
2021/11/21 07:47:19;;;;;;;7.15;4.25;;;;;;;;;;4951953;28;20048;-59
2021/11/21 07:49:44;;;;;;;7.05;4.22;;;;;;;;;;4952966;28;20329;-59
2021/11/21 07:52:10;;;;;;;6.25;4.15;;;;;;;;;;4951948;28;20030;-59
2021/11/21 07:54:35;;;;;;;7.28;4.05;;;;;;;;;;4951803;28;20410;-59
2021/11/21 07:57:01;;;;;;;5.32;3.85;;;;;;;;;;4951951;28;20322;-61
2021/11/21 07:59:26;;;;;;;7.43;4.20;;;;;;;;;;4951709;28;20437;-59
2021/11/21 08:01:52;;;;;;;8.48;4.50;;;;;;;;;;4951356;28;20353;-59
2021/11/21 08:04:17;;;;;;;6.38;4.35;;;;;;;;;;4951310;28;20029;-60
2021/11/21 08:06:43;;;;;;;7.18;4.53;;;;;;;;;;4951551;28;20030;-59
2021/11/21 08:09:09;;;;;;;8.95;5.03;;;;;;;;;;4952258;28;20534;-59
2021/11/21 08:11:34;;;;;;;8.90;4.80;;;;;;;;;;4951654;28;20524;-59
2021/11/21 08:14:00;;;;;;;8.05;4.53;;;;;;;;;;4966192;28;20413;-59
2021/11/21 08:16:25;;;;;;;6.32;4.07;;;;;;;;;;4952740;28;20455;-59
2021/11/21 08:18:50;;;;;;;6.90;4.32;;;;;;;;;;4951075;28;20325;-59
2021/11/21 08:21:16;;;;;;;7.93;4.53;;;;;;;;;;4951050;28;20449;-59
2021/11/21 08:23:41;;;;;;;5.50;3.85;;;;;;;;;;4949288;28;20453;-59
2021/11/21 08:26:07;;;;;;;6.05;3.67;;;;;;;;;;4951361;28;20369;-60
2021/11/21 08:28:32;;;;;;;7.22;3.83;;;;;;;;;;4950877;28;20409;-59
2021/11/21 08:30:58;;;;;;;7.45;4.80;;;;;;;;;;4951531;28;20427;-59
2021/11/21 08:33:23;;;;;;;7.20;4.07;;;;;;;;;;4951196;28;20524;-59
2021/11/21 08:35:49;;;;;;;7.03;3.75;;;;;;;;;;4951575;28;20361;-59
2021/11/21 08:38:14;;;;;;;6.90;4.35;;;;;;;;;;4951249;28;20372;-59
2021/11/21 08:40:40;;;;;;;6.03;3.47;;;;;;;;;;4952045;28;20494;-60
2021/11/21 08:43:05;;;;;;;6.43;4.28;;;;;;;;;;4950555;28;20373;-59
2021/11/21 08:45:32;;;;;;;8.23;3.50;;;;;;;;;;4950514;28;20429;-59
2021/11/21 08:48:01;;;;;;;6.32;3.40;;;;;;;;;;4950550;28;20697;-59
2021/11/21 08:50:27;;;;;;;5.28;3.58;;;;;;;;;;4951053;28;20322;-61
2021/11/21 08:52:53;;;;;;;5.70;3.47;;;;;;;;;;4950578;28;20353;-59
2021/11/21 08:55:18;;;;;;;6.97;4.10;;;;;;;;;;4952362;28;20056;-61
2021/11/21 08:57:45;;;;;;;5.68;3.22;;;;;;;;;;4950681;28;20085;-59
2021/11/21 09:00:12;;;;;;;5.95;3.20;;;;;;;;;;4950307;28;20252;-61
2021/11/21 09:02:38;;;;;;;5.95;3.50;;;;;;;;;;4950898;28;20048;-60
2021/11/21 09:05:06;;;;;;;7.50;3.25;;;;;;;;;;4950645;28;20096;-59
2021/11/21 09:07:33;;;;;;;6.85;3.55;;;;;;;;;;4950914;28;20445;-60
2021/11/21 09:09:58;;;;;;;5.43;3.50;;;;;;;;;;4950683;28;20448;-59
2021/11/21 09:12:24;;;;;;;5.30;3.17;;;;;;;;;;4950308;28;20376;-59
2021/11/21 09:14:49;;;;;;;5.65;3.17;;;;;;;;;;4950633;28;20049;-59
2021/11/21 09:17:14;;;;;;;5.45;3.58;;;;;;;;;;4950622;28;20471;-60
2021/11/21 09:19:40;;;;;;;7.40;3.65;;;;;;;;;;4950252;28;20429;-61
2021/11/21 09:22:05;;;;;;;8.02;4.20;;;;;;;;;;4950160;28;20417;-64
2021/11/21 09:24:30;;;;;;;6.32;3.53;;;;;;;;;;4950043;28;20334;-59
2021/11/21 09:26:56;;;;;;;5.75;3.78;;;;;;;;;;4950717;28;20342;-59
2021/11/21 09:29:21;;;;;;;7.45;3.92;;;;;;;;;;4950110;28;20484;-59
2021/11/21 09:31:47;;;;;;;5.82;3.90;;;;;;;;;;4950084;28;20453;-60
2021/11/21 09:34:14;;;;;;;6.50;3.35;;;;;;;;;;4949346;28;20364;-59
2021/11/21 09:36:40;;;;;;;5.85;3.42;;;;;;;;;;4950320;28;20406;-59
2021/11/21 09:39:05;;;;;;;6.53;3.83;;;;;;;;;;4949802;28;20026;-60
2021/11/21 09:41:31;;;;;;;5.43;3.47;;;;;;;;;;4949856;28;20337;-59
2021/11/21 09:43:56;;;;;;;6.53;3.72;;;;;;;;;;4949517;28;20053;-59
2021/11/21 09:46:25;;;;;;;9.25;4.65;;;;;;;;;;4968757;28;21419;-60
2021/11/21 09:48:50;;;;;;;7.43;4.10;;;;;;;;;;4968962;28;20455;-59
2021/11/21 09:51:16;;;;;;;6.53;3.50;;;;;;;;;;4969971;28;20555;-59
2021/11/21 09:53:42;;;;;;;8.85;4.00;;;;;;;;;;4969602;28;20372;-59
2021/11/21 09:56:08;;;;;;;5.70;3.85;;;;;;;;;;4969571;28;20447;-60
2021/11/21 09:58:33;;;;;;;8.65;3.78;;;;;;;;;;4969621;28;20371;-59
2021/11/21 10:00:59;;;;;;;6.18;3.67;;;;;;;;;;4969306;28;20430;-60
2021/11/21 10:03:24;;;;;;;5.88;3.65;;;;;;;;;;4969173;28;20057;-59
2021/11/21 10:05:53;;;;;;;6.57;3.45;;;;;;;;;;4969100;28;20416;-59
2021/11/21 10:08:20;;;;;;;;;;;;;;;;;;4969705;28;20108;-63
2021/11/21 10:10:50;;;;;;;8.77;3.80;;;;;;;;;;4969192;28;20216;-60
2021/11/21 10:13:35;;;;;;;6.75;3.78;;;;;;;;;;4969244;28;20376;-60
2021/11/21 10:16:20;;;;;;;7.10;3.83;;;;;;;;;;4968970;28;20461;-59
2021/11/21 10:18:46;;;;;;;6.82;3.40;;;;;;;;;;4970705;28;20029;-60
2021/11/21 10:21:11;;;;;;;6.45;4.10;;;;;;;;;;4969430;28;20057;-59
2021/11/21 10:23:36;;;;;;;6.25;3.95;;;;;;;;;;4968939;28;20443;-59
2021/11/21 10:26:02;;;;;;;5.50;3.47;;;;;;;;;;4970546;28;20333;-59
2021/11/21 10:28:30;;;;;;;4.13;2.78;;;;;;;;;;4969392;28;20448;-59
2021/11/21 10:31:13;;;;;;;5.63;3.42;;;;;;;;;;4969557;28;20057;-59
2021/11/21 10:33:51;;;;;;;7.10;3.58;;;;;;;;;;4969069;28;20429;-61
2021/11/21 10:36:26;;;;;;;4.27;3.10;;;;;;;;;;4969288;28;20460;-61
2021/11/21 10:38:59;;;;;;;9.90;3.83;;;;;;;;;;4968849;28;20057;-59
2021/11/21 10:41:28;;;;;;;8.05;4.03;;;;;;;;;;4950998;28;20313;-59
2021/11/21 10:43:58;;;;;;;8.13;4.25;;;;;;;;;;4968371;28;20496;-59
2021/11/21 10:46:39;;;;;;;6.78;3.53;;;;;;;;;;4969853;28;20491;-59
2021/11/21 10:49:24;;;;;;;6.07;3.70;;;;;;;;;;4972265;28;20356;-59
2021/11/21 10:52:13;;;;;;;11.18;4.18;;;;;;;;;;4972913;28;20132;-60
2021/11/21 10:55:04;;;;;;;9.00;4.13;;;;;;;;;;4972884;28;20387;-59
2021/11/21 10:57:36;;;;;;;8.05;4.07;;;;;;;;;;4952684;28;20049;-60
2021/11/21 11:00:12;;;;;;;12.60;4.65;;;;;;;;;;4972630;28;20033;-59
2021/11/21 11:02:43;;;;;;;10.60;4.20;;;;;;;;;;4972554;28;20360;-59
2021/11/21 11:05:14;;;;;;;8.13;4.28;;;;;;;;;;4971851;28;20033;-59
2021/11/21 11:07:49;;;;;;;7.55;4.20;;;;;;;;;;4972967;28;20417;-59
2021/11/21 11:10:16;;;;;;;7.18;4.05;;;;;;;;;;4972759;28;20413;-59
2021/11/21 11:12:44;;;;;;;8.60;3.90;;;;;;;;;;4972417;28;20611;-60
2021/11/21 11:15:10;;;;;;;7.93;3.90;;;;;;;;;;4972209;28;20452;-60
2021/11/21 11:17:36;;;;;;;6.00;3.60;;;;;;;;;;4971914;28;20380;-60
2021/11/21 11:20:12;;;;;;;8.75;4.28;;;;;;;;;;4972418;28;20438;-59
2021/11/21 11:22:40;;;;;;;8.13;3.58;;;;;;;;;;4971909;28;20344;-59
2021/11/21 11:25:08;;;;;;;8.85;4.78;;;;;;;;;;4971923;28;20029;-59
2021/11/21 11:27:45;;;;;;;5.85;3.55;;;;;;;;;;4971622;28;20342;-60
2021/11/21 11:30:11;;;;;;;8.68;4.38;;;;;;;;;;4972014;28;20437;-63
2021/11/21 11:32:39;;;;;;;8.45;4.25;;;;;;;;;;4971530;28;20104;-60
2021/11/21 11:35:26;;;;;;;8.20;4.10;;;;;;;;;;4971732;28;20029;-61
2021/11/21 11:37:54;;;;;;;8.27;4.57;;;;;;;;;;4971823;28;20448;-60
2021/11/21 11:40:28;;;;;;;7.20;3.97;;;;;;;;;;4971865;28;20420;-64
2021/11/21 11:42:58;;;;;;;6.30;3.75;;;;;;;;;;4971179;28;20510;-60
2021/11/21 11:45:41;;;;;;;7.78;4.18;;;;;;;;;;4971331;28;20429;-60
2021/11/21 11:48:29;;;;;;;7.10;4.13;;;;;;;;;;4971563;28;20428;-60
2021/11/21 11:50:54;;;;;;;7.10;4.00;;;;;;;;;;4971802;28;20352;-60
2021/11/21 11:53:46;;;;;;;7.70;4.28;;;;;;;;;;4953356;28;20022;-60
2021/11/21 11:56:21;;;;;;;5.97;3.72;;;;;;;;;;4972504;28;20431;-59
2021/11/21 11:58:51;;;;;;;9.18;4.03;;;;;;;;;;4970859;28;20025;-63
2021/11/21 12:01:31;;;;;;;8.80;4.05;;;;;;;;;;4971302;28;20510;-60
2021/11/21 12:03:58;;;;;;;8.02;4.10;;;;;;;;;;4971235;28;20029;-60
2021/11/21 12:06:35;;;;;;;11.80;4.93;;;;;;;;;;4971080;28;20337;-60
2021/11/21 12:09:19;;;;;;;8.55;4.15;;;;;;;;;;4971629;28;20125;-59
2021/11/21 12:12:10;;;;;;;6.65;3.63;;;;;;;;;;4970583;28;20395;-59
2021/11/21 12:14:39;;;;;;;7.90;4.25;;;;;;;;;;4965908;28;20383;-59
2021/11/21 12:17:05;;;;;;;7.28;4.45;;;;;;;;;;4971487;28;20372;-60
2021/11/21 12:19:52;;;;;;;8.07;4.03;;;;;;;;;;4970948;28;20438;-59
2021/11/21 12:22:24;;;;;;;6.47;3.92;;;;;;;;;;4971255;28;20445;-60
2021/11/21 12:24:50;;;;;;;7.35;4.43;;;;;;;;;;4970335;28;20428;-60
2021/11/21 12:27:18;;;;;;;6.97;3.83;;;;;;;;;;4970981;28;20059;-59
2021/11/21 12:29:44;;;;;;;7.32;4.13;;;;;;;;;;4971423;28;20407;-60
2021/11/21 12:32:28;;;;;;;7.30;4.60;;;;;;;;;;4971597;28;20385;-59
2021/11/21 12:34:54;;;;;;;6.18;4.13;;;;;;;;;;4970622;28;20479;-59
2021/11/21 12:37:29;;;;;;;7.05;4.13;;;;;;;;;;4970718;28;20471;-60
2021/11/21 12:39:57;;;;;;;7.57;3.95;;;;;;;;;;4970280;28;20469;-59
2021/11/21 12:42:29;;;;;;;9.02;4.75;;;;;;;;;;4971213;28;20347;-60
2021/11/21 12:45:10;;;;;;;7.22;4.03;;;;;;;;;;4969695;28;20422;-59
2021/11/21 12:47:37;;;;;;;7.22;4.18;;;;;;;;;;4970327;28;20437;-60
2021/11/21 12:50:03;;;;;;;7.57;3.92;;;;;;;;;;4971463;28;20463;-60
2021/11/21 12:52:29;;;;;;;7.97;3.90;;;;;;;;;;4970134;28;20436;-59
2021/11/21 12:54:54;;;;;;;7.53;4.63;;;;;;;;;;4971383;28;20439;-60
2021/11/21 12:57:20;;;;;;;7.88;4.63;;;;;;;;;;4970609;28;20316;-59
2021/11/21 12:59:55;;;;;;;9.27;4.90;;;;;;;;;;4969989;28;20456;-60
2021/11/21 13:02:24;;;;;;;10.32;4.03;;;;;;;;;;4970366;28;20384;-60
2021/11/21 13:05:01;;;;;;;8.43;4.35;;;;;;;;;;4970334;28;20033;-60
2021/11/21 13:07:30;;;;;;;7.00;4.63;;;;;;;;;;4970325;28;20444;-60
2021/11/21 13:10:15;;;;;;;8.07;4.88;;;;;;;;;;4969044;28;20433;-60
2021/11/21 13:12:43;;;;;;;8.75;4.65;;;;;;;;;;4970350;28;20464;-59
2021/11/21 13:15:15;;;;;;;8.50;4.43;;;;;;;;;;4970042;28;20432;-59
2021/11/21 13:17:43;;;;;;;5.47;3.80;;;;;;;;;;4968325;28;20317;-59
2021/11/21 13:20:12;;;;;;;8.23;4.65;;;;;;;;;;4971537;28;20417;-59
2021/11/21 13:23:06;;;;;;;;;;;;;;;;;;4970306;28;20456;-59
2021/11/21 13:25:36;;;;;;;10.27;4.35;;;;;;;;;;4952639;28;20312;-60
2021/11/21 13:28:20;;;;;;;9.73;4.97;;;;;;;;;;4970795;28;20029;-60
2021/11/21 13:30:46;;;;;;;9.70;5.07;;;;;;;;;;4969997;28;20438;-59
2021/11/21 13:33:20;;;;;;;8.70;4.38;;;;;;;;;;4970625;28;20388;-59
2021/11/21 13:35:49;;;;;;;8.95;4.93;;;;;;;;;;4970091;28;20439;-59
2021/11/21 13:38:14;;;;;;;9.45;5.18;;;;;;;;;;4969799;28;20387;-60
2021/11/21 13:40:40;;;;;;;8.27;4.63;;;;;;;;;;4969821;28;20056;-59
2021/11/21 13:43:07;;;;;;;9.32;4.72;;;;;;;;;;4969238;28;20574;-59
2021/11/21 13:45:33;;;;;;;7.43;4.45;;;;;;;;;;4969790;28;20420;-59
2021/11/21 13:47:59;;;;;;;9.95;5.10;;;;;;;;;;4969349;28;20349;-59
2021/11/21 13:50:32;;;;;;;7.85;4.30;;;;;;;;;;4969154;28;20316;-59
2021/11/21 13:52:58;;;;;;;7.82;4.57;;;;;;;;;;4969278;28;20344;-60
2021/11/21 13:55:25;;;;;;;11.80;5.45;;;;;;;;;;4969502;28;20034;-59
2021/11/21 13:57:54;;;;;;;9.85;4.82;;;;;;;;;;4959183;28;20455;-61
2021/11/21 14:00:27;;;;;;;8.00;4.40;;;;;;;;;;4973812;28;20449;-59
2021/11/21 14:03:16;;;;;;;12.07;5.15;;;;;;;;;;4969023;28;20417;-59
2021/11/21 14:05:46;;;;;;;7.38;4.43;;;;;;;;;;4969374;28;20376;-60
2021/11/21 14:08:11;;;;;;;7.65;4.47;;;;;;;;;;4969187;28;20525;-60
2021/11/21 14:10:38;;;;;;;9.73;5.28;;;;;;;;;;4970923;28;20485;-60
2021/11/21 14:13:11;;;;;;;11.40;4.90;;;;;;;;;;4969107;28;20500;-59
2021/11/21 14:15:37;;;;;;;9.13;4.88;;;;;;;;;;4969437;28;20349;-59
2021/11/21 14:18:02;;;;;;;10.20;5.40;;;;;;;;;;4969362;28;20364;-59
2021/11/21 14:20:28;;;;;;;9.20;5.00;;;;;;;;;;4970426;28;20431;-61
2021/11/21 14:23:00;;;;;;;8.82;4.85;;;;;;;;;;4973065;28;20449;-61
2021/11/21 14:25:34;;;;;;;10.43;4.80;;;;;;;;;;4973482;28;20033;-61
2021/11/21 14:28:08;;;;;;;9.93;5.35;;;;;;;;;;4973590;28;20341;-63
2021/11/21 14:30:45;;;;;;;9.05;4.80;;;;;;;;;;4973248;28;20344;-59
2021/11/21 14:33:32;;;;;;;9.20;4.68;;;;;;;;;;4973734;28;20344;-60
2021/11/21 14:35:59;;;;;;;10.00;4.72;;;;;;;;;;4955214;28;20041;-59
2021/11/21 14:38:28;;;;;;;11.15;5.85;;;;;;;;;;4973031;28;20379;-60
2021/11/21 14:41:10;;;;;;;8.25;4.43;;;;;;;;;;4974041;28;20494;-60
2021/11/21 14:43:45;;;;;;;7.80;3.95;;;;;;;;;;4972046;28;20364;-59